sensor_id;sensor_type;location;lat;lon;timestamp;P1;durP1;ratioP1;P2;durP2;ratioP2
49384;SDS011;36795;45.028;38.968;2023-09-07T00:02:37;15.35;;;4.10;;
49384;SDS011;36795;45.028;38.968;2023-09-07T00:05:24;14.73;;;3.70;;
49384;SDS011;36795;45.028;38.968;2023-09-07T00:08:09;15.18;;;3.45;;
49384;SDS011;36795;45.028;38.968;2023-09-07T00:11:01;17.98;;;4.28;;
49384;SDS011;36795;45.028;38.968;2023-09-07T00:13:51;16.33;;;4.15;;
49384;SDS011;36795;45.028;38.968;2023-09-07T00:16:37;16.23;;;3.80;;
49384;SDS011;36795;45.028;38.968;2023-09-07T00:19:23;16.90;;;4.25;;
49384;SDS011;36795;45.028;38.968;2023-09-07T00:22:09;14.93;;;3.80;;
49384;SDS011;36795;45.028;38.968;2023-09-07T00:24:55;20.42;;;4.37;;
49384;SDS011;36795;45.028;38.968;2023-09-07T00:27:42;16.85;;;4.00;;
49384;SDS011;36795;45.028;38.968;2023-09-07T00:30:27;16.30;;;4.10;;
49384;SDS011;36795;45.028;38.968;2023-09-07T00:33:14;16.10;;;4.22;;
49384;SDS011;36795;45.028;38.968;2023-09-07T00:36:01;16.08;;;4.28;;
49384;SDS011;36795;45.028;38.968;2023-09-07T00:38:48;15.00;;;4.72;;
49384;SDS011;36795;45.028;38.968;2023-09-07T00:41:34;17.10;;;4.65;;
49384;SDS011;36795;45.028;38.968;2023-09-07T00:44:20;19.67;;;4.60;;
49384;SDS011;36795;45.028;38.968;2023-09-07T00:47:06;20.73;;;5.07;;
49384;SDS011;36795;45.028;38.968;2023-09-07T00:49:53;21.62;;;5.07;;
49384;SDS011;36795;45.028;38.968;2023-09-07T00:52:40;17.17;;;4.85;;
49384;SDS011;36795;45.028;38.968;2023-09-07T00:55:28;18.60;;;4.93;;
49384;SDS011;36795;45.028;38.968;2023-09-07T00:58:18;20.88;;;5.03;;
49384;SDS011;36795;45.028;38.968;2023-09-07T01:01:04;20.60;;;5.55;;
49384;SDS011;36795;45.028;38.968;2023-09-07T01:03:50;18.75;;;5.20;;
49384;SDS011;36795;45.028;38.968;2023-09-07T01:06:37;24.45;;;5.12;;
49384;SDS011;36795;45.028;38.968;2023-09-07T01:09:28;16.00;;;5.15;;
49384;SDS011;36795;45.028;38.968;2023-09-07T01:12:17;19.67;;;5.78;;
49384;SDS011;36795;45.028;38.968;2023-09-07T01:15:03;19.58;;;5.22;;
49384;SDS011;36795;45.028;38.968;2023-09-07T01:17:50;20.80;;;5.40;;
49384;SDS011;36795;45.028;38.968;2023-09-07T01:20:37;23.25;;;5.80;;
49384;SDS011;36795;45.028;38.968;2023-09-07T01:23:26;18.67;;;5.82;;
49384;SDS011;36795;45.028;38.968;2023-09-07T01:26:12;18.98;;;5.35;;
49384;SDS011;36795;45.028;38.968;2023-09-07T01:28:59;19.77;;;5.55;;
49384;SDS011;36795;45.028;38.968;2023-09-07T01:31:46;19.27;;;5.95;;
49384;SDS011;36795;45.028;38.968;2023-09-07T01:34:33;23.27;;;6.00;;
49384;SDS011;36795;45.028;38.968;2023-09-07T01:37:19;20.62;;;6.28;;
49384;SDS011;36795;45.028;38.968;2023-09-07T01:40:05;20.52;;;5.40;;
49384;SDS011;36795;45.028;38.968;2023-09-07T01:42:52;18.40;;;5.68;;
49384;SDS011;36795;45.028;38.968;2023-09-07T01:45:38;22.35;;;5.25;;
49384;SDS011;36795;45.028;38.968;2023-09-07T01:48:24;26.87;;;5.35;;
49384;SDS011;36795;45.028;38.968;2023-09-07T01:51:11;23.92;;;5.57;;
49384;SDS011;36795;45.028;38.968;2023-09-07T01:54:01;20.55;;;5.18;;
49384;SDS011;36795;45.028;38.968;2023-09-07T01:56:48;20.55;;;5.30;;
49384;SDS011;36795;45.028;38.968;2023-09-07T01:59:33;20.17;;;5.18;;
49384;SDS011;36795;45.028;38.968;2023-09-07T02:02:20;20.85;;;5.80;;
49384;SDS011;36795;45.028;38.968;2023-09-07T02:05:07;23.17;;;6.22;;
49384;SDS011;36795;45.028;38.968;2023-09-07T02:07:53;21.27;;;5.97;;
49384;SDS011;36795;45.028;38.968;2023-09-07T02:10:39;20.85;;;5.30;;
49384;SDS011;36795;45.028;38.968;2023-09-07T02:13:25;18.35;;;4.87;;
49384;SDS011;36795;45.028;38.968;2023-09-07T02:16:11;19.48;;;5.62;;
49384;SDS011;36795;45.028;38.968;2023-09-07T02:19:06;23.17;;;5.55;;
49384;SDS011;36795;45.028;38.968;2023-09-07T02:21:52;22.90;;;5.87;;
49384;SDS011;36795;45.028;38.968;2023-09-07T02:24:39;18.40;;;5.62;;
49384;SDS011;36795;45.028;38.968;2023-09-07T02:27:25;20.83;;;6.10;;
49384;SDS011;36795;45.028;38.968;2023-09-07T02:30:11;23.45;;;5.70;;
49384;SDS011;36795;45.028;38.968;2023-09-07T02:32:58;23.42;;;6.43;;
49384;SDS011;36795;45.028;38.968;2023-09-07T02:35:44;20.90;;;6.07;;
49384;SDS011;36795;45.028;38.968;2023-09-07T02:38:31;20.95;;;6.05;;
49384;SDS011;36795;45.028;38.968;2023-09-07T02:41:17;22.90;;;5.40;;
49384;SDS011;36795;45.028;38.968;2023-09-07T02:44:03;22.30;;;6.45;;
49384;SDS011;36795;45.028;38.968;2023-09-07T02:46:49;21.70;;;6.22;;
49384;SDS011;36795;45.028;38.968;2023-09-07T02:49:36;26.33;;;7.20;;
49384;SDS011;36795;45.028;38.968;2023-09-07T02:52:22;22.45;;;6.45;;
49384;SDS011;36795;45.028;38.968;2023-09-07T02:55:08;21.75;;;6.40;;
49384;SDS011;36795;45.028;38.968;2023-09-07T02:57:56;21.65;;;5.85;;
49384;SDS011;36795;45.028;38.968;2023-09-07T03:00:43;20.02;;;5.65;;
49384;SDS011;36795;45.028;38.968;2023-09-07T03:03:29;22.35;;;6.75;;
49384;SDS011;36795;45.028;38.968;2023-09-07T03:06:16;27.30;;;6.62;;
49384;SDS011;36795;45.028;38.968;2023-09-07T03:09:03;25.60;;;6.57;;
49384;SDS011;36795;45.028;38.968;2023-09-07T03:11:55;28.50;;;7.50;;
49384;SDS011;36795;45.028;38.968;2023-09-07T03:14:42;25.62;;;7.72;;
49384;SDS011;36795;45.028;38.968;2023-09-07T03:17:30;26.98;;;7.18;;
49384;SDS011;36795;45.028;38.968;2023-09-07T03:20:16;22.83;;;7.18;;
49384;SDS011;36795;45.028;38.968;2023-09-07T03:23:02;24.50;;;6.62;;
49384;SDS011;36795;45.028;38.968;2023-09-07T03:25:48;26.73;;;6.82;;
49384;SDS011;36795;45.028;38.968;2023-09-07T03:28:35;24.98;;;7.00;;
49384;SDS011;36795;45.028;38.968;2023-09-07T03:31:22;30.85;;;8.98;;
49384;SDS011;36795;45.028;38.968;2023-09-07T03:34:09;27.35;;;7.85;;
49384;SDS011;36795;45.028;38.968;2023-09-07T03:36:54;22.45;;;6.55;;
49384;SDS011;36795;45.028;38.968;2023-09-07T03:39:41;26.60;;;7.53;;
49384;SDS011;36795;45.028;38.968;2023-09-07T03:42:26;25.23;;;6.57;;
49384;SDS011;36795;45.028;38.968;2023-09-07T03:45:13;22.35;;;6.35;;
49384;SDS011;36795;45.028;38.968;2023-09-07T03:47:58;23.35;;;6.30;;
49384;SDS011;36795;45.028;38.968;2023-09-07T03:50:45;20.98;;;6.75;;
49384;SDS011;36795;45.028;38.968;2023-09-07T03:53:31;22.80;;;6.70;;
49384;SDS011;36795;45.028;38.968;2023-09-07T03:56:18;26.77;;;6.93;;
49384;SDS011;36795;45.028;38.968;2023-09-07T03:59:07;25.95;;;6.78;;
49384;SDS011;36795;45.028;38.968;2023-09-07T04:01:53;25.30;;;7.32;;
49384;SDS011;36795;45.028;38.968;2023-09-07T04:04:40;22.60;;;6.93;;
49384;SDS011;36795;45.028;38.968;2023-09-07T04:07:26;26.87;;;7.70;;
49384;SDS011;36795;45.028;38.968;2023-09-07T04:10:13;23.05;;;6.90;;
49384;SDS011;36795;45.028;38.968;2023-09-07T04:12:59;21.65;;;6.72;;
49384;SDS011;36795;45.028;38.968;2023-09-07T04:15:45;20.05;;;6.20;;
49384;SDS011;36795;45.028;38.968;2023-09-07T04:18:31;26.05;;;7.05;;
49384;SDS011;36795;45.028;38.968;2023-09-07T04:21:18;23.80;;;7.05;;
49384;SDS011;36795;45.028;38.968;2023-09-07T04:24:03;27.13;;;6.40;;
49384;SDS011;36795;45.028;38.968;2023-09-07T04:26:50;26.48;;;7.40;;
49384;SDS011;36795;45.028;38.968;2023-09-07T04:29:36;27.90;;;8.15;;
49384;SDS011;36795;45.028;38.968;2023-09-07T04:32:22;27.00;;;9.18;;
49384;SDS011;36795;45.028;38.968;2023-09-07T04:35:08;29.25;;;11.30;;
49384;SDS011;36795;45.028;38.968;2023-09-07T04:37:55;28.20;;;9.07;;
49384;SDS011;36795;45.028;38.968;2023-09-07T04:40:42;47.88;;;9.65;;
49384;SDS011;36795;45.028;38.968;2023-09-07T04:43:28;27.73;;;7.80;;
49384;SDS011;36795;45.028;38.968;2023-09-07T04:46:14;30.05;;;7.97;;
49384;SDS011;36795;45.028;38.968;2023-09-07T04:49:00;23.60;;;7.32;;
49384;SDS011;36795;45.028;38.968;2023-09-07T04:51:52;27.60;;;7.55;;
49384;SDS011;36795;45.028;38.968;2023-09-07T04:54:47;27.20;;;7.62;;
49384;SDS011;36795;45.028;38.968;2023-09-07T04:57:43;28.40;;;7.97;;
49384;SDS011;36795;45.028;38.968;2023-09-07T05:00:30;27.83;;;7.37;;
49384;SDS011;36795;45.028;38.968;2023-09-07T05:03:16;22.73;;;7.45;;
49384;SDS011;36795;45.028;38.968;2023-09-07T05:06:03;27.98;;;8.40;;
49384;SDS011;36795;45.028;38.968;2023-09-07T05:08:49;27.98;;;8.35;;
49384;SDS011;36795;45.028;38.968;2023-09-07T05:11:36;25.40;;;7.55;;
49384;SDS011;36795;45.028;38.968;2023-09-07T05:14:25;24.10;;;6.70;;
49384;SDS011;36795;45.028;38.968;2023-09-07T05:17:11;24.40;;;7.18;;
49384;SDS011;36795;45.028;38.968;2023-09-07T05:19:58;24.55;;;6.68;;
49384;SDS011;36795;45.028;38.968;2023-09-07T05:22:44;27.52;;;7.37;;
49384;SDS011;36795;45.028;38.968;2023-09-07T05:25:30;26.45;;;7.45;;
49384;SDS011;36795;45.028;38.968;2023-09-07T05:28:17;24.70;;;6.95;;
49384;SDS011;36795;45.028;38.968;2023-09-07T05:31:03;26.17;;;7.37;;
49384;SDS011;36795;45.028;38.968;2023-09-07T05:33:49;22.87;;;6.80;;
49384;SDS011;36795;45.028;38.968;2023-09-07T05:36:36;26.75;;;7.00;;
49384;SDS011;36795;45.028;38.968;2023-09-07T05:39:23;30.60;;;7.57;;
49384;SDS011;36795;45.028;38.968;2023-09-07T05:42:09;25.67;;;7.45;;
49384;SDS011;36795;45.028;38.968;2023-09-07T05:44:55;25.33;;;7.40;;
49384;SDS011;36795;45.028;38.968;2023-09-07T05:47:41;27.98;;;7.28;;
49384;SDS011;36795;45.028;38.968;2023-09-07T05:50:27;29.58;;;7.95;;
49384;SDS011;36795;45.028;38.968;2023-09-07T05:53:14;26.77;;;7.68;;
49384;SDS011;36795;45.028;38.968;2023-09-07T05:56:00;30.25;;;6.90;;
49384;SDS011;36795;45.028;38.968;2023-09-07T05:58:47;24.65;;;7.35;;
49384;SDS011;36795;45.028;38.968;2023-09-07T06:01:43;31.02;;;7.00;;
49384;SDS011;36795;45.028;38.968;2023-09-07T06:04:30;27.05;;;7.50;;
49384;SDS011;36795;45.028;38.968;2023-09-07T06:07:17;23.40;;;6.78;;
49384;SDS011;36795;45.028;38.968;2023-09-07T06:10:03;27.83;;;6.78;;
49384;SDS011;36795;45.028;38.968;2023-09-07T06:12:51;23.90;;;6.05;;
49384;SDS011;36795;45.028;38.968;2023-09-07T06:15:38;24.17;;;6.62;;
49384;SDS011;36795;45.028;38.968;2023-09-07T06:18:28;31.30;;;7.53;;
49384;SDS011;36795;45.028;38.968;2023-09-07T06:21:16;24.83;;;6.55;;
49384;SDS011;36795;45.028;38.968;2023-09-07T06:24:03;27.92;;;5.90;;
49384;SDS011;36795;45.028;38.968;2023-09-07T06:26:51;28.20;;;6.50;;
49384;SDS011;36795;45.028;38.968;2023-09-07T06:29:37;24.95;;;6.40;;
49384;SDS011;36795;45.028;38.968;2023-09-07T06:32:23;23.65;;;6.10;;
49384;SDS011;36795;45.028;38.968;2023-09-07T06:35:09;26.55;;;5.90;;
49384;SDS011;36795;45.028;38.968;2023-09-07T06:37:56;22.35;;;5.12;;
49384;SDS011;36795;45.028;38.968;2023-09-07T06:40:47;22.13;;;4.97;;
49384;SDS011;36795;45.028;38.968;2023-09-07T06:43:34;18.00;;;4.37;;
49384;SDS011;36795;45.028;38.968;2023-09-07T06:46:21;22.27;;;4.43;;
49384;SDS011;36795;45.028;38.968;2023-09-07T06:49:07;18.60;;;4.30;;
49384;SDS011;36795;45.028;38.968;2023-09-07T06:51:53;19.85;;;4.15;;
49384;SDS011;36795;45.028;38.968;2023-09-07T06:54:40;17.40;;;3.97;;
49384;SDS011;36795;45.028;38.968;2023-09-07T06:57:25;19.55;;;4.68;;
49384;SDS011;36795;45.028;38.968;2023-09-07T07:00:12;24.33;;;4.55;;
49384;SDS011;36795;45.028;38.968;2023-09-07T07:03:01;19.40;;;4.03;;
49384;SDS011;36795;45.028;38.968;2023-09-07T07:05:48;24.83;;;4.47;;
49384;SDS011;36795;45.028;38.968;2023-09-07T07:08:38;19.87;;;3.80;;
49384;SDS011;36795;45.028;38.968;2023-09-07T07:11:24;17.77;;;3.85;;
49384;SDS011;36795;45.028;38.968;2023-09-07T07:14:10;16.83;;;3.97;;
49384;SDS011;36795;45.028;38.968;2023-09-07T07:16:58;14.95;;;3.70;;
49384;SDS011;36795;45.028;38.968;2023-09-07T07:19:47;15.88;;;3.60;;
49384;SDS011;36795;45.028;38.968;2023-09-07T07:22:33;16.40;;;3.90;;
49384;SDS011;36795;45.028;38.968;2023-09-07T07:25:21;19.90;;;4.10;;
49384;SDS011;36795;45.028;38.968;2023-09-07T07:28:09;17.20;;;3.85;;
49384;SDS011;36795;45.028;38.968;2023-09-07T07:30:55;18.20;;;3.75;;
49384;SDS011;36795;45.028;38.968;2023-09-07T07:33:41;10.43;;;3.10;;
49384;SDS011;36795;45.028;38.968;2023-09-07T07:36:27;17.15;;;3.40;;
49384;SDS011;36795;45.028;38.968;2023-09-07T07:39:15;18.55;;;3.70;;
49384;SDS011;36795;45.028;38.968;2023-09-07T07:42:01;18.65;;;3.67;;
49384;SDS011;36795;45.028;38.968;2023-09-07T07:44:50;13.75;;;3.45;;
49384;SDS011;36795;45.028;38.968;2023-09-07T07:47:36;13.65;;;3.03;;
49384;SDS011;36795;45.028;38.968;2023-09-07T07:50:22;8.68;;;2.70;;
49384;SDS011;36795;45.028;38.968;2023-09-07T07:53:08;15.07;;;2.80;;
49384;SDS011;36795;45.028;38.968;2023-09-07T07:55:56;15.40;;;3.00;;
49384;SDS011;36795;45.028;38.968;2023-09-07T07:58:43;8.48;;;2.95;;
49384;SDS011;36795;45.028;38.968;2023-09-07T08:01:31;16.15;;;3.20;;
49384;SDS011;36795;45.028;38.968;2023-09-07T08:04:21;15.10;;;3.00;;
49384;SDS011;36795;45.028;38.968;2023-09-07T08:07:08;16.55;;;3.33;;
49384;SDS011;36795;45.028;38.968;2023-09-07T08:10:00;14.15;;;3.58;;
49384;SDS011;36795;45.028;38.968;2023-09-07T08:12:46;12.15;;;3.10;;
49384;SDS011;36795;45.028;38.968;2023-09-07T08:15:33;15.18;;;4.03;;
49384;SDS011;36795;45.028;38.968;2023-09-07T08:18:19;14.87;;;3.33;;
49384;SDS011;36795;45.028;38.968;2023-09-07T08:21:05;12.32;;;3.10;;
49384;SDS011;36795;45.028;38.968;2023-09-07T08:23:51;13.05;;;3.05;;
49384;SDS011;36795;45.028;38.968;2023-09-07T08:26:38;11.18;;;3.10;;
49384;SDS011;36795;45.028;38.968;2023-09-07T08:29:24;14.30;;;2.95;;
49384;SDS011;36795;45.028;38.968;2023-09-07T08:32:12;10.02;;;2.65;;
49384;SDS011;36795;45.028;38.968;2023-09-07T08:34:58;15.43;;;3.33;;
49384;SDS011;36795;45.028;38.968;2023-09-07T08:37:46;14.80;;;3.25;;
49384;SDS011;36795;45.028;38.968;2023-09-07T08:40:32;14.63;;;3.37;;
49384;SDS011;36795;45.028;38.968;2023-09-07T08:43:21;15.27;;;3.62;;
49384;SDS011;36795;45.028;38.968;2023-09-07T08:46:09;15.32;;;4.12;;
49384;SDS011;36795;45.028;38.968;2023-09-07T08:49:00;13.95;;;3.30;;
49384;SDS011;36795;45.028;38.968;2023-09-07T08:51:48;13.00;;;3.15;;
49384;SDS011;36795;45.028;38.968;2023-09-07T08:54:36;10.55;;;2.92;;
49384;SDS011;36795;45.028;38.968;2023-09-07T08:57:23;16.33;;;3.62;;
49384;SDS011;36795;45.028;38.968;2023-09-07T09:00:10;14.30;;;3.83;;
49384;SDS011;36795;45.028;38.968;2023-09-07T09:03:01;16.65;;;4.05;;
49384;SDS011;36795;45.028;38.968;2023-09-07T09:05:50;20.20;;;3.67;;
49384;SDS011;36795;45.028;38.968;2023-09-07T09:08:43;14.07;;;3.50;;
49384;SDS011;36795;45.028;38.968;2023-09-07T09:11:30;17.48;;;3.25;;
49384;SDS011;36795;45.028;38.968;2023-09-07T09:14:17;19.52;;;8.73;;
49384;SDS011;36795;45.028;38.968;2023-09-07T09:17:14;15.23;;;4.35;;
49384;SDS011;36795;45.028;38.968;2023-09-07T09:20:00;10.77;;;3.20;;
49384;SDS011;36795;45.028;38.968;2023-09-07T09:22:47;15.15;;;3.97;;
49384;SDS011;36795;45.028;38.968;2023-09-07T09:25:43;18.70;;;4.43;;
49384;SDS011;36795;45.028;38.968;2023-09-07T09:28:33;18.20;;;3.95;;
49384;SDS011;36795;45.028;38.968;2023-09-07T09:31:19;12.40;;;3.17;;
49384;SDS011;36795;45.028;38.968;2023-09-07T09:34:06;14.73;;;3.80;;
49384;SDS011;36795;45.028;38.968;2023-09-07T09:36:53;14.32;;;3.53;;
49384;SDS011;36795;45.028;38.968;2023-09-07T09:39:40;13.05;;;3.92;;
49384;SDS011;36795;45.028;38.968;2023-09-07T09:42:26;11.30;;;3.15;;
49384;SDS011;36795;45.028;38.968;2023-09-07T09:45:13;15.15;;;3.30;;
49384;SDS011;36795;45.028;38.968;2023-09-07T09:47:59;14.50;;;3.40;;
49384;SDS011;36795;45.028;38.968;2023-09-07T09:50:47;12.57;;;3.30;;
49384;SDS011;36795;45.028;38.968;2023-09-07T09:53:34;12.55;;;3.78;;
49384;SDS011;36795;45.028;38.968;2023-09-07T09:56:27;13.90;;;3.87;;
49384;SDS011;36795;45.028;38.968;2023-09-07T09:59:13;16.52;;;4.12;;
49384;SDS011;36795;45.028;38.968;2023-09-07T10:02:00;13.93;;;3.53;;
49384;SDS011;36795;45.028;38.968;2023-09-07T10:04:48;16.30;;;3.37;;
49384;SDS011;36795;45.028;38.968;2023-09-07T10:07:41;15.95;;;3.72;;
49384;SDS011;36795;45.028;38.968;2023-09-07T10:10:34;8.63;;;3.17;;
49384;SDS011;36795;45.028;38.968;2023-09-07T10:13:30;14.27;;;3.30;;
49384;SDS011;36795;45.028;38.968;2023-09-07T10:16:19;12.60;;;3.35;;
49384;SDS011;36795;45.028;38.968;2023-09-07T10:19:13;15.30;;;3.00;;
49384;SDS011;36795;45.028;38.968;2023-09-07T10:22:07;12.13;;;3.12;;
49384;SDS011;36795;45.028;38.968;2023-09-07T10:25:05;12.80;;;2.90;;
49384;SDS011;36795;45.028;38.968;2023-09-07T10:28:19;10.90;;;3.12;;
49384;SDS011;36795;45.028;38.968;2023-09-07T10:31:27;12.13;;;2.70;;
49384;SDS011;36795;45.028;38.968;2023-09-07T10:34:13;10.77;;;3.03;;
49384;SDS011;36795;45.028;38.968;2023-09-07T10:37:02;11.95;;;2.72;;
49384;SDS011;36795;45.028;38.968;2023-09-07T10:39:50;11.43;;;2.50;;
49384;SDS011;36795;45.028;38.968;2023-09-07T10:42:47;12.37;;;3.17;;
49384;SDS011;36795;45.028;38.968;2023-09-07T10:45:33;11.93;;;2.92;;
49384;SDS011;36795;45.028;38.968;2023-09-07T10:48:19;10.80;;;2.80;;
49384;SDS011;36795;45.028;38.968;2023-09-07T10:51:05;12.20;;;3.03;;
49384;SDS011;36795;45.028;38.968;2023-09-07T10:53:51;12.80;;;2.80;;
49384;SDS011;36795;45.028;38.968;2023-09-07T10:56:42;9.68;;;3.15;;
49384;SDS011;36795;45.028;38.968;2023-09-07T10:59:29;12.73;;;3.10;;
49384;SDS011;36795;45.028;38.968;2023-09-07T11:02:15;9.82;;;2.72;;
49384;SDS011;36795;45.028;38.968;2023-09-07T11:05:02;13.18;;;3.22;;
49384;SDS011;36795;45.028;38.968;2023-09-07T11:07:48;11.30;;;3.42;;
49384;SDS011;36795;45.028;38.968;2023-09-07T11:10:34;12.18;;;3.22;;
49384;SDS011;36795;45.028;38.968;2023-09-07T11:13:22;14.15;;;3.10;;
49384;SDS011;36795;45.028;38.968;2023-09-07T11:16:10;30.95;;;8.90;;
49384;SDS011;36795;45.028;38.968;2023-09-07T11:18:56;12.73;;;3.58;;
49384;SDS011;36795;45.028;38.968;2023-09-07T11:21:42;10.52;;;2.80;;
49384;SDS011;36795;45.028;38.968;2023-09-07T11:24:28;9.90;;;2.75;;
49384;SDS011;36795;45.028;38.968;2023-09-07T11:27:18;12.60;;;3.08;;
49384;SDS011;36795;45.028;38.968;2023-09-07T11:30:10;15.98;;;3.17;;
49384;SDS011;36795;45.028;38.968;2023-09-07T11:33:06;9.45;;;2.45;;
49384;SDS011;36795;45.028;38.968;2023-09-07T11:36:23;16.08;;;4.00;;
49384;SDS011;36795;45.028;38.968;2023-09-07T11:39:27;9.02;;;2.50;;
49384;SDS011;36795;45.028;38.968;2023-09-07T11:42:25;11.18;;;3.05;;
49384;SDS011;36795;45.028;38.968;2023-09-07T11:45:19;11.23;;;3.08;;
49384;SDS011;36795;45.028;38.968;2023-09-07T11:48:56;9.40;;;2.65;;
49384;SDS011;36795;45.028;38.968;2023-09-07T11:52:02;10.23;;;3.03;;
49384;SDS011;36795;45.028;38.968;2023-09-07T11:54:49;16.80;;;3.42;;
49384;SDS011;36795;45.028;38.968;2023-09-07T11:58:13;13.20;;;3.25;;
49384;SDS011;36795;45.028;38.968;2023-09-07T12:01:11;19.50;;;3.67;;
49384;SDS011;36795;45.028;38.968;2023-09-07T12:04:16;11.75;;;2.70;;
49384;SDS011;36795;45.028;38.968;2023-09-07T12:07:12;9.63;;;2.47;;
49384;SDS011;36795;45.028;38.968;2023-09-07T12:10:13;10.73;;;3.20;;
49384;SDS011;36795;45.028;38.968;2023-09-07T12:13:18;8.13;;;2.67;;
49384;SDS011;36795;45.028;38.968;2023-09-07T12:16:21;11.50;;;3.12;;
49384;SDS011;36795;45.028;38.968;2023-09-07T12:19:20;10.02;;;3.10;;
49384;SDS011;36795;45.028;38.968;2023-09-07T12:22:13;9.85;;;3.12;;
49384;SDS011;36795;45.028;38.968;2023-09-07T12:25:04;9.93;;;2.87;;
49384;SDS011;36795;45.028;38.968;2023-09-07T12:28:13;11.70;;;3.67;;
49384;SDS011;36795;45.028;38.968;2023-09-07T12:31:09;10.02;;;3.28;;
49384;SDS011;36795;45.028;38.968;2023-09-07T12:33:58;12.65;;;3.75;;
49384;SDS011;36795;45.028;38.968;2023-09-07T12:36:51;10.45;;;3.20;;
49384;SDS011;36795;45.028;38.968;2023-09-07T12:39:55;10.68;;;3.03;;
49384;SDS011;36795;45.028;38.968;2023-09-07T12:42:47;12.88;;;3.58;;
49384;SDS011;36795;45.028;38.968;2023-09-07T12:45:48;14.93;;;3.80;;
49384;SDS011;36795;45.028;38.968;2023-09-07T12:48:35;9.88;;;3.45;;
49384;SDS011;36795;45.028;38.968;2023-09-07T12:51:23;12.57;;;3.83;;
49384;SDS011;36795;45.028;38.968;2023-09-07T12:54:13;13.48;;;3.90;;
49384;SDS011;36795;45.028;38.968;2023-09-07T12:57:11;14.30;;;4.20;;
49384;SDS011;36795;45.028;38.968;2023-09-07T13:00:08;13.57;;;4.32;;
49384;SDS011;36795;45.028;38.968;2023-09-07T13:05:50;19.40;;;5.97;;
49384;SDS011;36795;45.028;38.968;2023-09-07T13:08:45;12.60;;;3.75;;
49384;SDS011;36795;45.028;38.968;2023-09-07T13:11:31;14.25;;;3.97;;
49384;SDS011;36795;45.028;38.968;2023-09-07T13:14:18;13.07;;;3.90;;
49384;SDS011;36795;45.028;38.968;2023-09-07T13:17:04;14.87;;;3.78;;
49384;SDS011;36795;45.028;38.968;2023-09-07T13:19:51;17.33;;;4.62;;
49384;SDS011;36795;45.028;38.968;2023-09-07T13:22:37;13.00;;;4.00;;
49384;SDS011;36795;45.028;38.968;2023-09-07T13:25:23;14.98;;;4.43;;
49384;SDS011;36795;45.028;38.968;2023-09-07T13:28:09;17.15;;;4.85;;
49384;SDS011;36795;45.028;38.968;2023-09-07T13:31:01;16.15;;;4.60;;
49384;SDS011;36795;45.028;38.968;2023-09-07T13:33:48;16.50;;;4.45;;
49384;SDS011;36795;45.028;38.968;2023-09-07T13:36:35;14.63;;;4.45;;
49384;SDS011;36795;45.028;38.968;2023-09-07T13:39:24;16.58;;;4.22;;
49384;SDS011;36795;45.028;38.968;2023-09-07T13:42:12;19.40;;;4.70;;
49384;SDS011;36795;45.028;38.968;2023-09-07T13:44:59;13.68;;;4.32;;
49384;SDS011;36795;45.028;38.968;2023-09-07T13:47:45;17.15;;;4.82;;
49384;SDS011;36795;45.028;38.968;2023-09-07T13:50:32;15.98;;;4.62;;
49384;SDS011;36795;45.028;38.968;2023-09-07T13:53:18;15.63;;;4.30;;
49384;SDS011;36795;45.028;38.968;2023-09-07T13:56:05;17.58;;;4.82;;
49384;SDS011;36795;45.028;38.968;2023-09-07T13:58:54;19.30;;;4.95;;
49384;SDS011;36795;45.028;38.968;2023-09-07T14:01:39;15.88;;;4.20;;
49384;SDS011;36795;45.028;38.968;2023-09-07T14:04:26;15.90;;;3.92;;
49384;SDS011;36795;45.028;38.968;2023-09-07T14:07:12;16.35;;;4.30;;
49384;SDS011;36795;45.028;38.968;2023-09-07T14:09:59;16.58;;;4.25;;
49384;SDS011;36795;45.028;38.968;2023-09-07T14:12:45;19.10;;;4.87;;
49384;SDS011;36795;45.028;38.968;2023-09-07T14:15:33;19.25;;;4.85;;
49384;SDS011;36795;45.028;38.968;2023-09-07T14:18:19;18.17;;;5.03;;
49384;SDS011;36795;45.028;38.968;2023-09-07T14:21:05;27.45;;;14.18;;
49384;SDS011;36795;45.028;38.968;2023-09-07T14:23:51;25.08;;;5.22;;
49384;SDS011;36795;45.028;38.968;2023-09-07T14:26:38;16.67;;;4.35;;
49384;SDS011;36795;45.028;38.968;2023-09-07T14:29:24;18.90;;;4.65;;
49384;SDS011;36795;45.028;38.968;2023-09-07T14:32:12;19.98;;;5.18;;
49384;SDS011;36795;45.028;38.968;2023-09-07T14:34:58;16.25;;;4.35;;
49384;SDS011;36795;45.028;38.968;2023-09-07T14:37:44;24.55;;;5.75;;
49384;SDS011;36795;45.028;38.968;2023-09-07T14:40:30;16.85;;;4.87;;
49384;SDS011;36795;45.028;38.968;2023-09-07T14:43:16;13.30;;;4.50;;
49384;SDS011;36795;45.028;38.968;2023-09-07T14:46:02;17.25;;;4.32;;
49384;SDS011;36795;45.028;38.968;2023-09-07T14:48:49;15.88;;;5.25;;
49384;SDS011;36795;45.028;38.968;2023-09-07T14:51:34;19.87;;;5.28;;
49384;SDS011;36795;45.028;38.968;2023-09-07T14:54:21;18.58;;;4.85;;
49384;SDS011;36795;45.028;38.968;2023-09-07T14:57:18;19.02;;;5.22;;
49384;SDS011;36795;45.028;38.968;2023-09-07T15:00:05;17.75;;;4.72;;
49384;SDS011;36795;45.028;38.968;2023-09-07T15:02:52;23.60;;;5.47;;
49384;SDS011;36795;45.028;38.968;2023-09-07T15:05:39;17.40;;;5.05;;
49384;SDS011;36795;45.028;38.968;2023-09-07T15:08:25;24.95;;;5.70;;
49384;SDS011;36795;45.028;38.968;2023-09-07T15:11:11;21.35;;;5.40;;
49384;SDS011;36795;45.028;38.968;2023-09-07T15:13:58;16.95;;;4.97;;
49384;SDS011;36795;45.028;38.968;2023-09-07T15:16:45;19.48;;;5.85;;
49384;SDS011;36795;45.028;38.968;2023-09-07T15:19:31;21.73;;;5.65;;
49384;SDS011;36795;45.028;38.968;2023-09-07T15:22:19;19.50;;;4.87;;
49384;SDS011;36795;45.028;38.968;2023-09-07T15:25:05;20.40;;;5.95;;
49384;SDS011;36795;45.028;38.968;2023-09-07T15:27:52;21.73;;;6.12;;
49384;SDS011;36795;45.028;38.968;2023-09-07T15:30:38;23.42;;;6.07;;
49384;SDS011;36795;45.028;38.968;2023-09-07T15:33:27;24.23;;;7.10;;
49384;SDS011;36795;45.028;38.968;2023-09-07T15:36:14;21.05;;;5.80;;
49384;SDS011;36795;45.028;38.968;2023-09-07T15:39:01;21.62;;;5.80;;
49384;SDS011;36795;45.028;38.968;2023-09-07T15:41:48;21.65;;;6.40;;
49384;SDS011;36795;45.028;38.968;2023-09-07T15:44:34;23.20;;;6.93;;
49384;SDS011;36795;45.028;38.968;2023-09-07T15:47:31;20.23;;;5.50;;
49384;SDS011;36795;45.028;38.968;2023-09-07T15:50:25;18.70;;;6.43;;
49384;SDS011;36795;45.028;38.968;2023-09-07T15:53:11;24.12;;;6.65;;
49384;SDS011;36795;45.028;38.968;2023-09-07T15:55:58;23.08;;;6.53;;
49384;SDS011;36795;45.028;38.968;2023-09-07T15:58:45;21.45;;;7.03;;
49384;SDS011;36795;45.028;38.968;2023-09-07T16:01:31;25.52;;;7.28;;
49384;SDS011;36795;45.028;38.968;2023-09-07T16:04:18;25.23;;;6.90;;
49384;SDS011;36795;45.028;38.968;2023-09-07T16:07:08;24.17;;;6.78;;
49384;SDS011;36795;45.028;38.968;2023-09-07T16:09:55;22.45;;;7.28;;
49384;SDS011;36795;45.028;38.968;2023-09-07T16:12:45;27.50;;;7.82;;
49384;SDS011;36795;45.028;38.968;2023-09-07T16:15:33;24.60;;;8.63;;
49384;SDS011;36795;45.028;38.968;2023-09-07T16:18:19;25.67;;;7.97;;
49384;SDS011;36795;45.028;38.968;2023-09-07T16:21:06;21.90;;;7.53;;
49384;SDS011;36795;45.028;38.968;2023-09-07T16:24:07;25.70;;;7.93;;
49384;SDS011;36795;45.028;38.968;2023-09-07T16:27:04;24.17;;;8.98;;
49384;SDS011;36795;45.028;38.968;2023-09-07T16:29:51;26.92;;;8.52;;